createdAt,value
2022-08-10T00:02:25.422Z,20.90
2022-08-10T00:04:52.737Z,20.90
2022-08-10T00:07:20.160Z,20.90
2022-08-10T00:09:50.601Z,20.80
2022-08-10T00:12:19.854Z,20.80
2022-08-10T00:14:48.980Z,20.80
2022-08-10T00:17:16.733Z,20.80
2022-08-10T00:20:04.226Z,20.70
2022-08-10T00:22:31.941Z,20.70
2022-08-10T00:25:00.478Z,20.70
2022-08-10T00:27:52.007Z,20.70
2022-08-10T00:30:16.230Z,20.60
2022-08-10T00:32:43.610Z,20.60
2022-08-10T00:35:11.350Z,20.50
2022-08-10T00:37:38.704Z,20.50
2022-08-10T00:40:07.050Z,20.40
2022-08-10T00:42:34.696Z,20.40
2022-08-10T00:45:02.292Z,20.30
2022-08-10T00:47:36.910Z,20.30
2022-08-10T00:50:08.079Z,20.30
2022-08-10T00:52:36.827Z,20.30
2022-08-10T00:55:05.988Z,20.30
2022-08-10T00:57:34.474Z,20.20
2022-08-10T01:00:02.512Z,20.20
2022-08-10T01:02:32.633Z,20.10
2022-08-10T01:05:05.106Z,20.10
2022-08-10T01:08:00.364Z,20.10
2022-08-10T01:10:36.355Z,20.00
2022-08-10T01:13:13.542Z,20.00
2022-08-10T01:15:40.884Z,19.90
2022-08-10T01:18:17.165Z,19.80
2022-08-10T01:20:59.863Z,19.80
2022-08-10T01:23:53.488Z,19.70
2022-08-10T01:26:51.963Z,19.70
2022-08-10T01:29:39.426Z,19.60
2022-08-10T01:32:09.298Z,19.60
2022-08-10T01:35:02.596Z,19.50
2022-08-10T01:37:34.372Z,19.50
2022-08-10T01:40:04.721Z,19.40
2022-08-10T01:42:36.333Z,19.40
2022-08-10T01:45:07.490Z,19.40
2022-08-10T01:47:57.891Z,19.30
2022-08-10T01:50:59.450Z,19.30
2022-08-10T01:53:52.090Z,19.30
2022-08-10T01:56:22.752Z,19.20
2022-08-10T01:58:53.875Z,19.20
2022-08-10T02:01:25.611Z,19.20
2022-08-10T02:04:04.746Z,19.10
2022-08-10T02:06:38.526Z,19.10
2022-08-10T02:09:08.899Z,19.10
2022-08-10T02:12:06.071Z,19.10
2022-08-10T02:14:34.959Z,19.00
2022-08-10T02:17:06.258Z,19.00
2022-08-10T02:19:36.502Z,19.00
2022-08-10T02:22:36.696Z,18.90
2022-08-10T02:24:56.172Z,18.90
2022-08-10T02:27:26.962Z,18.90
2022-08-10T02:29:57.537Z,18.90
2022-08-10T02:32:32.917Z,18.90
2022-08-10T02:35:08.100Z,18.80
2022-08-10T02:37:41.697Z,18.80
2022-08-10T02:45:13.777Z,18.80
2022-08-10T02:45:22.800Z,18.80
2022-08-10T02:46:09.662Z,18.80
2022-08-10T02:48:41.366Z,18.70
2022-08-10T02:51:20.678Z,18.70
2022-08-10T02:54:14.776Z,18.60
2022-08-10T02:57:10.438Z,18.60
2022-08-10T02:59:45.761Z,18.60
2022-08-10T03:02:36.232Z,18.60
2022-08-10T03:05:11.530Z,18.50
2022-08-10T03:07:59.340Z,18.50
2022-08-10T03:10:32.924Z,18.50
2022-08-10T03:13:02.042Z,18.50
2022-08-10T03:15:31.230Z,18.40
2022-08-10T03:17:59.934Z,18.40
2022-08-10T03:20:38.176Z,18.40
2022-08-10T03:23:15.412Z,18.40
2022-08-10T03:25:54.251Z,18.40
2022-08-10T03:28:25.159Z,18.40
2022-08-10T03:30:53.803Z,18.40
2022-08-10T03:33:24.523Z,18.30
2022-08-10T03:36:41.334Z,18.30
2022-08-10T03:38:40.912Z,18.40
2022-08-10T03:41:16.350Z,18.40
2022-08-10T03:43:49.051Z,18.40
2022-08-10T03:46:19.871Z,18.50
2022-08-10T03:48:51.428Z,18.50
2022-08-10T03:51:20.054Z,18.60
2022-08-10T03:54:04.189Z,18.50
2022-08-10T03:56:39.943Z,18.60
2022-08-10T03:59:09.446Z,18.60
2022-08-10T04:02:43.691Z,18.60
2022-08-10T04:04:25.841Z,18.60
2022-08-10T04:06:59.048Z,18.60
2022-08-10T04:09:54.262Z,18.60
2022-08-10T04:12:19.691Z,18.60
2022-08-10T04:14:50.540Z,18.70
2022-08-10T04:17:56.948Z,18.70
2022-08-10T04:20:34.253Z,18.80
2022-08-10T04:23:07.913Z,18.90
2022-08-10T04:25:37.563Z,19.00
2022-08-10T04:28:05.699Z,19.20
2022-08-10T04:30:35.471Z,19.60
2022-08-10T04:33:05.476Z,20.00
2022-08-10T04:35:34.066Z,20.40
2022-08-10T04:38:03.299Z,20.70
2022-08-10T04:40:49.592Z,21.00
2022-08-10T04:43:17.487Z,21.20
2022-08-10T04:45:48.432Z,21.40
2022-08-10T04:48:40.314Z,21.50
2022-08-10T04:51:18.141Z,21.70
2022-08-10T04:54:03.175Z,21.90
2022-08-10T04:56:35.395Z,22.10
2022-08-10T04:59:03.521Z,22.20
2022-08-10T05:02:27.870Z,22.30
2022-08-10T05:04:35.529Z,22.20
2022-08-10T05:07:07.896Z,21.90
2022-08-10T05:10:02.276Z,21.60
2022-08-10T05:12:23.055Z,21.40
2022-08-10T05:14:52.095Z,21.20
2022-08-10T05:17:20.018Z,21.20
2022-08-10T05:20:02.100Z,21.40
2022-08-10T05:22:35.321Z,21.90
2022-08-10T05:25:04.095Z,22.60
2022-08-10T05:27:31.638Z,23.00
2022-08-10T05:30:02.555Z,23.20
2022-08-10T05:32:57.538Z,23.50
2022-08-10T05:35:21.825Z,23.80
2022-08-10T05:38:09.348Z,24.10
2022-08-10T05:40:42.498Z,24.20
2022-08-10T05:43:19.684Z,24.20
2022-08-10T05:46:18.842Z,24.40
2022-08-10T05:48:59.378Z,24.60
2022-08-10T05:51:30.102Z,24.60
2022-08-10T05:54:01.940Z,24.60
2022-08-10T05:56:54.798Z,24.60
2022-08-10T06:00:30.915Z,24.70
2022-08-10T06:02:32.488Z,24.60
2022-08-10T06:05:16.046Z,24.60
2022-08-10T06:07:51.920Z,24.60
2022-08-10T06:10:32.767Z,24.50
2022-08-10T06:13:30.052Z,24.60
2022-08-10T06:16:05.312Z,24.60
2022-08-10T06:18:33.232Z,24.70
2022-08-10T06:21:00.969Z,24.70
2022-08-10T06:23:32.639Z,25.00
2022-08-10T06:26:08.406Z,25.10
2022-08-10T06:28:39.747Z,25.00
2022-08-10T06:31:09.787Z,25.00
2022-08-10T06:33:39.476Z,25.10
2022-08-10T06:36:09.504Z,25.20
2022-08-10T06:38:39.528Z,25.30
2022-08-10T06:41:19.562Z,25.50
2022-08-10T06:43:55.501Z,25.60
2022-08-10T06:46:24.628Z,25.50
2022-08-10T06:48:55.760Z,25.50
2022-08-10T06:51:27.724Z,25.50
2022-08-10T06:53:59.813Z,25.40
2022-08-10T06:56:37.910Z,25.20
2022-08-10T06:59:27.919Z,25.10
2022-08-10T07:02:02.327Z,25.00
2022-08-10T07:04:38.160Z,25.00
2022-08-10T07:07:07.915Z,24.90
2022-08-10T07:09:39.124Z,25.00
2022-08-10T07:12:09.257Z,25.00
2022-08-10T07:14:40.295Z,24.90
2022-08-10T07:17:15.545Z,25.00
2022-08-10T07:19:50.022Z,25.00
2022-08-10T07:23:08.360Z,24.90
2022-08-10T07:25:10.384Z,25.00
2022-08-10T07:27:58.323Z,25.10
2022-08-10T07:30:30.634Z,25.10
2022-08-10T07:33:00.080Z,25.10
2022-08-10T07:35:34.796Z,25.10
2022-08-10T07:38:07.592Z,25.10
2022-08-10T07:40:36.512Z,25.20
2022-08-10T07:43:05.028Z,25.30
2022-08-10T07:45:35.484Z,25.40
2022-08-10T07:48:08.683Z,25.50
2022-08-10T07:50:40.715Z,25.50
2022-08-10T07:53:13.061Z,25.50
2022-08-10T07:56:05.507Z,25.60
2022-08-10T07:58:35.917Z,25.60
2022-08-10T08:01:03.751Z,25.80
2022-08-10T08:03:33.011Z,25.80
2022-08-10T08:06:09.054Z,25.80
2022-08-10T08:08:42.271Z,25.80
2022-08-10T08:11:26.178Z,25.80
2022-08-10T08:13:55.735Z,26.00
2022-08-10T08:16:26.335Z,26.10
2022-08-10T08:19:26.319Z,26.20
2022-08-10T08:24:09.976Z,26.20
2022-08-10T08:24:36.469Z,26.40
2022-08-10T08:27:06.652Z,26.50
2022-08-10T08:29:36.967Z,26.50
2022-08-10T08:32:07.448Z,26.50
2022-08-10T08:34:38.795Z,26.60
2022-08-10T08:37:09.103Z,26.70
2022-08-10T08:39:37.476Z,26.70
2022-08-10T08:42:23.893Z,26.90
2022-08-10T08:45:21.322Z,27.10
2022-08-10T08:48:05.179Z,27.10
2022-08-10T08:50:57.490Z,27.20
2022-08-10T08:54:03.636Z,27.30
2022-08-10T08:56:39.903Z,27.60
2022-08-10T08:59:31.467Z,27.80
2022-08-10T09:02:10.629Z,28.00
2022-08-10T09:04:55.679Z,27.90
2022-08-10T09:08:01.450Z,28.00
2022-08-10T09:11:04.531Z,28.30
2022-08-10T09:13:39.928Z,28.70
2022-08-10T09:16:44.692Z,28.70
2022-08-10T09:19:50.838Z,28.80
2022-08-10T09:22:39.881Z,28.90
2022-08-10T09:25:14.651Z,28.90
2022-08-10T09:27:49.228Z,29.00
2022-08-10T09:30:32.955Z,28.90
2022-08-10T09:36:26.779Z,29.00
2022-08-10T09:36:35.626Z,29.20
2022-08-10T09:39:08.056Z,29.20
2022-08-10T09:41:49.432Z,29.30
2022-08-10T09:44:57.292Z,29.40
2022-08-10T09:48:01.255Z,29.20
2022-08-10T09:51:22.377Z,29.30
2022-08-10T09:53:56.217Z,29.40
2022-08-10T09:56:42.766Z,29.50
2022-08-10T10:00:00.397Z,29.50
2022-08-10T10:02:21.529Z,29.40
2022-08-10T10:05:30.441Z,29.30
2022-08-10T10:08:21.455Z,29.50
2022-08-10T10:11:07.507Z,29.60
2022-08-10T10:14:03.845Z,29.70
2022-08-10T10:17:02.602Z,29.80
2022-08-10T10:19:40.925Z,29.90
2022-08-10T10:22:11.456Z,29.80
2022-08-10T10:24:45.747Z,29.80
2022-08-10T10:27:16.306Z,29.90
2022-08-10T10:30:08.634Z,30.10
2022-08-10T10:32:57.927Z,30.10
2022-08-10T10:35:35.317Z,30.20
2022-08-10T10:38:06.796Z,30.40
2022-08-10T10:40:59.355Z,30.40
2022-08-10T10:43:36.704Z,30.40
2022-08-10T10:46:41.944Z,30.20
2022-08-10T10:49:18.354Z,30.10
2022-08-10T10:52:15.905Z,30.10
2022-08-10T10:55:08.231Z,30.10
2022-08-10T10:57:59.107Z,30.00
2022-08-10T11:00:37.029Z,29.90
2022-08-10T11:03:07.511Z,30.00
2022-08-10T11:08:43.530Z,30.20
2022-08-10T11:12:00.687Z,30.50
2022-08-10T11:14:24.651Z,30.70
2022-08-10T11:17:18.740Z,30.90
2022-08-10T11:20:02.673Z,30.90
2022-08-10T11:22:40.170Z,30.70
2022-08-10T11:25:21.201Z,30.20
2022-08-10T11:27:51.391Z,29.90
2022-08-10T11:30:31.178Z,29.90
2022-08-10T11:33:12.603Z,30.10
2022-08-10T11:35:59.609Z,30.30
2022-08-10T11:38:57.996Z,30.30
2022-08-10T11:42:07.070Z,30.40
2022-08-10T11:44:46.339Z,30.50
2022-08-10T11:47:20.342Z,30.50
2022-08-10T11:50:00.152Z,30.50
2022-08-10T11:52:56.495Z,30.50
2022-08-10T11:55:49.249Z,30.70
2022-08-10T11:58:36.904Z,30.90
2022-08-10T12:01:07.602Z,31.10
2022-08-10T12:03:38.696Z,31.10
2022-08-10T12:06:10.122Z,30.90
2022-08-10T12:10:07.642Z,30.90
2022-08-10T12:11:28.171Z,31.00
2022-08-10T12:14:20.267Z,31.10
2022-08-10T12:16:50.503Z,31.10
2022-08-10T12:19:26.267Z,31.30
2022-08-10T12:22:03.639Z,31.30
2022-08-10T12:24:55.444Z,31.50
2022-08-10T12:27:41.929Z,31.50
2022-08-10T12:30:14.771Z,31.30
2022-08-10T12:33:04.767Z,31.30
2022-08-10T12:36:08.242Z,31.40
2022-08-10T12:39:23.266Z,31.40
2022-08-10T12:42:10.414Z,31.20
2022-08-10T12:44:50.287Z,31.30
2022-08-10T12:47:55.315Z,31.30
2022-08-10T12:50:47.563Z,31.40
2022-08-10T12:53:23.817Z,31.40
2022-08-10T12:55:51.958Z,31.30
2022-08-10T12:58:57.173Z,31.30
2022-08-10T13:01:16.570Z,31.30
2022-08-10T13:04:23.569Z,31.10
2022-08-10T13:06:47.555Z,31.00
2022-08-10T13:09:21.811Z,31.10
2022-08-10T13:12:44.239Z,31.10
2022-08-10T13:14:58.255Z,31.10
2022-08-10T13:17:39.967Z,31.30
2022-08-10T13:20:21.598Z,31.40
2022-08-10T13:22:51.473Z,31.40
2022-08-10T13:25:25.409Z,31.10
2022-08-10T13:28:02.397Z,30.80
2022-08-10T13:30:37.319Z,30.80
2022-08-10T13:33:07.634Z,30.70
2022-08-10T13:35:36.648Z,30.80
2022-08-10T13:38:05.987Z,30.90
2022-08-10T13:40:33.919Z,31.10
2022-08-10T13:43:06.014Z,31.10
2022-08-10T13:45:34.508Z,31.00
2022-08-10T13:48:16.764Z,31.00
2022-08-10T13:50:46.601Z,30.80
2022-08-10T13:53:17.151Z,30.90
2022-08-10T13:55:54.155Z,31.00
2022-08-10T13:58:41.123Z,30.90
2022-08-10T14:01:12.181Z,30.70
2022-08-10T14:03:42.547Z,30.70
2022-08-10T14:06:13.459Z,30.70
2022-08-10T14:08:50.463Z,30.80
2022-08-10T14:11:20.268Z,30.90
2022-08-10T14:13:55.064Z,31.00
2022-08-10T14:16:23.363Z,31.20
2022-08-10T14:18:55.656Z,31.10
2022-08-10T14:21:23.280Z,31.10
2022-08-10T14:23:53.498Z,31.10
2022-08-10T14:26:32.028Z,31.20
2022-08-10T14:29:10.776Z,31.30
2022-08-10T14:32:01.445Z,31.30
2022-08-10T14:36:15.251Z,31.40
2022-08-10T14:37:57.746Z,31.50
2022-08-10T14:40:32.558Z,31.70
2022-08-10T14:43:05.629Z,31.60
2022-08-10T14:45:38.437Z,31.60
2022-08-10T14:48:14.480Z,31.70
2022-08-10T14:50:55.518Z,31.70
2022-08-10T14:53:27.329Z,31.70
2022-08-10T14:56:02.256Z,31.70
2022-08-10T14:59:05.602Z,31.80
2022-08-10T15:02:00.853Z,31.80
2022-08-10T15:04:28.898Z,31.70
2022-08-10T15:07:11.812Z,31.30
2022-08-10T15:10:00.848Z,31.00
2022-08-10T15:12:35.658Z,30.80
2022-08-10T15:15:07.978Z,30.60
2022-08-10T15:17:40.560Z,30.80
2022-08-10T15:20:19.595Z,31.00
2022-08-10T15:22:52.831Z,31.20
2022-08-10T15:25:25.613Z,31.30
2022-08-10T15:28:08.276Z,31.30
2022-08-10T15:30:43.144Z,31.20
2022-08-10T15:34:04.236Z,30.90
2022-08-10T15:37:36.288Z,30.70
2022-08-10T15:40:24.950Z,30.40
2022-08-10T15:43:20.654Z,30.10
2022-08-10T15:46:22.482Z,30.00
2022-08-10T15:49:02.891Z,29.90
2022-08-10T15:51:53.778Z,29.80
2022-08-10T15:54:33.737Z,29.90
2022-08-10T15:57:07.134Z,30.00
2022-08-10T15:59:54.797Z,30.10
2022-08-10T16:02:30.026Z,30.10
2022-08-10T16:05:03.530Z,30.20
2022-08-10T16:07:46.062Z,30.20
2022-08-10T16:10:26.457Z,30.20
2022-08-10T16:13:59.625Z,30.30
2022-08-10T16:15:56.818Z,30.40
2022-08-10T16:18:30.251Z,30.40
2022-08-10T16:21:04.911Z,30.40
2022-08-10T16:23:38.705Z,30.30
2022-08-10T16:26:15.228Z,30.20
2022-08-10T16:29:02.269Z,30.00
2022-08-10T16:31:32.475Z,30.00
2022-08-10T16:34:02.509Z,29.90
2022-08-10T16:36:40.462Z,29.70
2022-08-10T16:39:15.693Z,29.60
2022-08-10T16:42:05.579Z,29.40
2022-08-10T16:44:50.301Z,29.30
2022-08-10T16:47:20.240Z,29.10
2022-08-10T16:49:52.752Z,29.00
2022-08-10T16:52:24.545Z,28.90
2022-08-10T16:55:16.549Z,28.80
2022-08-10T16:57:51.317Z,28.70
2022-08-10T17:00:22.795Z,28.70
2022-08-10T17:02:54.988Z,28.60
2022-08-10T17:06:10.348Z,28.50
2022-08-10T17:08:15.044Z,28.40
2022-08-10T17:10:42.946Z,28.40
2022-08-10T17:13:11.910Z,28.30
2022-08-10T17:15:43.270Z,28.20
2022-08-10T17:18:27.528Z,28.20
2022-08-10T17:20:59.890Z,28.20
2022-08-10T17:23:35.172Z,28.20
2022-08-10T17:26:09.632Z,28.20
2022-08-10T17:28:43.914Z,28.10
2022-08-10T17:31:54.814Z,28.00
2022-08-10T17:34:44.487Z,28.00
2022-08-10T17:37:17.873Z,27.90
2022-08-10T17:40:07.176Z,27.90
2022-08-10T17:42:36.032Z,27.80
2022-08-10T17:45:04.683Z,27.70
2022-08-10T17:50:23.656Z,27.60
2022-08-10T17:52:58.272Z,27.50
2022-08-10T17:55:35.869Z,27.50
2022-08-10T17:58:09.828Z,27.40
2022-08-10T18:00:43.079Z,27.20
2022-08-10T18:03:25.503Z,27.20
2022-08-10T18:06:00.083Z,27.10
2022-08-10T18:08:57.144Z,27.00
2022-08-10T18:11:32.405Z,27.00
2022-08-10T18:14:05.096Z,26.80
2022-08-10T18:16:34.464Z,26.70
2022-08-10T18:19:11.411Z,26.60
2022-08-10T18:21:42.036Z,26.50
2022-08-10T18:24:16.872Z,26.50
2022-08-10T18:26:47.891Z,26.40
2022-08-10T18:29:20.680Z,26.30
2022-08-10T18:31:54.258Z,26.20
2022-08-10T18:34:23.346Z,26.20
2022-08-10T18:36:52.146Z,26.10
2022-08-10T18:39:29.666Z,26.00
2022-08-10T18:42:05.621Z,26.00
2022-08-10T18:44:40.977Z,25.90
2022-08-10T18:47:33.737Z,25.80
2022-08-10T18:50:12.339Z,25.80
2022-08-10T18:52:43.606Z,25.70
2022-08-10T18:55:22.977Z,25.60
2022-08-10T18:58:00.568Z,25.60
2022-08-10T19:00:51.717Z,25.50
2022-08-10T19:03:47.379Z,25.40
2022-08-10T19:06:36.904Z,25.30
2022-08-10T19:09:45.629Z,25.20
2022-08-10T19:12:35.010Z,25.10
2022-08-10T19:18:30.349Z,24.90
2022-08-10T19:21:18.981Z,24.90
2022-08-10T19:24:16.982Z,24.80
2022-08-10T19:26:57.547Z,24.70
2022-08-10T19:30:09.708Z,24.70
2022-08-10T19:32:47.728Z,24.60
2022-08-10T19:35:33.966Z,24.50
2022-08-10T19:38:49.363Z,24.50
2022-08-10T19:41:31.873Z,24.50
2022-08-10T19:44:02.199Z,24.40
2022-08-10T19:46:54.415Z,24.30
2022-08-10T19:49:44.359Z,24.30
2022-08-10T19:52:29.477Z,24.30
2022-08-10T19:55:18.457Z,24.20
2022-08-10T19:58:26.355Z,24.10
2022-08-10T20:01:02.413Z,24.10
2022-08-10T20:03:40.166Z,24.00
2022-08-10T20:06:20.740Z,23.90
2022-08-10T20:09:09.544Z,23.90
2022-08-10T20:11:47.718Z,23.80
2022-08-10T20:14:23.970Z,23.80
2022-08-10T20:16:58.672Z,23.70
2022-08-10T20:20:00.236Z,23.60
2022-08-10T20:22:31.428Z,23.60
2022-08-10T20:25:16.936Z,23.50
2022-08-10T20:28:14.682Z,23.50
2022-08-10T20:30:51.019Z,23.50
2022-08-10T20:33:40.781Z,23.40
2022-08-10T20:36:26.595Z,23.40
2022-08-10T20:39:09.763Z,23.40
2022-08-10T20:42:04.856Z,23.40
2022-08-10T20:44:35.344Z,23.30
2022-08-10T20:47:22.241Z,23.30
2022-08-10T20:50:06.546Z,23.30
2022-08-10T20:52:36.707Z,23.20
2022-08-10T20:55:08.696Z,23.20
2022-08-10T20:58:09.844Z,23.10
2022-08-10T21:00:50.652Z,23.10
2022-08-10T21:03:48.134Z,23.10
2022-08-10T21:07:00.819Z,23.00
2022-08-10T21:09:46.982Z,22.90
2022-08-10T21:12:29.350Z,22.80
2022-08-10T21:15:23.569Z,22.80
2022-08-10T21:18:04.367Z,22.70
2022-08-10T21:20:54.050Z,22.70
2022-08-10T21:23:30.281Z,22.60
2022-08-10T21:26:15.953Z,22.60
2022-08-10T21:29:37.756Z,22.50
2022-08-10T21:32:15.629Z,22.50
2022-08-10T21:35:20.273Z,22.40
2022-08-10T21:38:30.862Z,22.40
2022-08-10T21:42:04.978Z,22.30
2022-08-10T21:45:57.929Z,22.30
2022-08-10T21:48:57.823Z,22.20
2022-08-10T21:52:38.275Z,22.10
2022-08-10T21:55:57.506Z,22.00
2022-08-10T21:59:08.462Z,22.00
2022-08-10T22:02:06.105Z,21.90
2022-08-10T22:04:52.455Z,21.90
2022-08-10T22:07:40.170Z,21.80
2022-08-10T22:10:29.402Z,21.80
2022-08-10T22:13:21.379Z,21.70
2022-08-10T22:16:12.912Z,21.70
2022-08-10T22:19:03.923Z,21.70
2022-08-10T22:22:08.146Z,21.60
2022-08-10T22:25:27.848Z,21.50
2022-08-10T22:28:18.178Z,21.40
2022-08-10T22:31:32.640Z,21.40
2022-08-10T22:34:31.810Z,21.30
2022-08-10T22:37:50.231Z,21.30
2022-08-10T22:40:41.202Z,21.30
2022-08-10T22:43:37.234Z,21.20
2022-08-10T22:46:30.532Z,21.20
2022-08-10T22:49:00.893Z,21.10
2022-08-10T22:51:49.214Z,21.10
2022-08-10T22:54:59.298Z,21.00
2022-08-10T22:57:45.423Z,21.00
2022-08-10T23:00:17.422Z,20.90
2022-08-10T23:03:05.780Z,20.90
2022-08-10T23:05:36.307Z,20.90
2022-08-10T23:08:19.586Z,20.90
2022-08-10T23:11:07.499Z,20.90
2022-08-10T23:13:44.492Z,20.90
2022-08-10T23:16:44.077Z,20.80
2022-08-10T23:19:27.255Z,20.80
2022-08-10T23:22:05.644Z,20.80
2022-08-10T23:24:43.813Z,20.80
2022-08-10T23:27:38.475Z,20.80
2022-08-10T23:30:09.708Z,20.80
2022-08-10T23:32:45.785Z,20.70
2022-08-10T23:36:31.882Z,20.70
2022-08-10T23:38:07.955Z,20.70
2022-08-10T23:40:36.916Z,20.60
2022-08-10T23:43:06.607Z,20.60
2022-08-10T23:45:53.277Z,20.60
2022-08-10T23:48:33.167Z,20.60
2022-08-10T23:51:16.444Z,20.50
2022-08-10T23:53:47.847Z,20.50
2022-08-10T23:56:20.710Z,20.50
2022-08-10T23:58:55.038Z,20.40
